Skip Navigation Links Skip Navigation Links

Current Weather

Chicago Midway, Chicago

For information only: do not use for flight planning or navigation.
Latest weather
Observation time Friday, April 3, 2020 10:53 AM CDT
Local time Friday, April 3, 2020 11:28 AM CDT
Flight conditions Visual Meteorological Conditions
Winds
Wind direction South (180°)
Wind speed 7 mph
Visibility 10 mi.
Sky condition
Ceiling unlimited
Cloud layer few clouds 9,000 ft.
Cloud layer scattered clouds 15,000 ft.
Temperature 62°F
Dewpoint 40°F
Altimeter 30.08 in.Hg
Derived measurements
Relative humidity 44%
Density altitude 764 ft.
Sea-level pressure 30.08 in.Hg
Remarks
Automated weather observing station with precipitation discriminator.
METAR KMDW 031553Z 18006KT 10SM FEW090 SCT150 17/04 A3008 RMK AO2 SLP186 T01670044

Settings

Location code

InnerDrive.Weather 4.0.6770.0 Release CLR 4.0.30319.42000
Copyright ©2018 Inner Drive Technology. All rights reserved. Portions Copyright ©1986-2018 David Braverman.

Find weather

Site navigation


Skip Navigation Links

Place info

Page info

PayPal - The safer, easier way to pay online!

Return home.

Copyright ©2020 Inner Drive Technology. Purveyors of fine, hand-crafted computer software. Page printed 2020-04-03T16:28:14 UTC.